createdAt,value
2022-10-23T00:02:02.669Z,13.30
2022-10-23T00:04:29.869Z,15.50
2022-10-23T00:06:56.791Z,15.63
2022-10-23T00:09:24.929Z,18.00
2022-10-23T00:11:53.312Z,19.75
2022-10-23T00:14:23.042Z,17.48
2022-10-23T00:16:50.721Z,19.10
2022-10-23T00:19:18.437Z,13.63
2022-10-23T00:21:45.411Z,12.13
2022-10-23T00:24:12.636Z,11.95
2022-10-23T00:26:40.778Z,11.35
2022-10-23T00:29:09.001Z,10.13
2022-10-23T00:31:36.298Z,10.70
2022-10-23T00:34:04.285Z,9.85
2022-10-23T00:36:31.419Z,10.80
2022-10-23T00:38:58.387Z,10.15
2022-10-23T00:41:28.948Z,8.75
2022-10-23T00:44:07.299Z,9.02
2022-10-23T00:46:36.311Z,9.50
2022-10-23T00:49:05.371Z,9.73
2022-10-23T00:51:38.917Z,10.90
2022-10-23T00:54:24.394Z,10.68
2022-10-23T00:56:56.613Z,10.95
2022-10-23T00:59:24.298Z,10.23
2022-10-23T01:01:51.371Z,11.43
2022-10-23T01:04:19.186Z,9.63
2022-10-23T01:07:09.546Z,11.57
2022-10-23T01:12:11.171Z,9.77
2022-10-23T01:14:47.634Z,10.18
2022-10-23T01:17:30.065Z,14.80
2022-10-23T01:20:34.691Z,9.30
2022-10-23T01:23:30.409Z,10.13
2022-10-23T01:26:19.689Z,8.80
2022-10-23T01:28:57.334Z,8.77
2022-10-23T01:32:00.607Z,8.93
2022-10-23T01:34:47.804Z,8.45
2022-10-23T01:37:20.745Z,8.32
2022-10-23T01:39:53.801Z,8.77
2022-10-23T01:42:26.018Z,7.18
2022-10-23T01:45:02.019Z,7.32
2022-10-23T01:47:37.783Z,8.77
2022-10-23T01:50:09.862Z,9.30
2022-10-23T01:52:38.424Z,7.68
2022-10-23T01:55:10.042Z,7.40
2022-10-23T01:57:40.602Z,8.10
2022-10-23T02:00:15.216Z,8.10
2022-10-23T02:02:52.645Z,8.02
2022-10-23T02:05:25.532Z,7.88
2022-10-23T02:07:53.654Z,8.05
2022-10-23T02:10:25.840Z,8.35
2022-10-23T02:13:09.268Z,8.68
2022-10-23T02:15:48.750Z,10.02
2022-10-23T02:18:46.464Z,9.30
2022-10-23T02:21:31.592Z,10.80
2022-10-23T02:24:25.443Z,12.45
2022-10-23T02:27:01.398Z,11.93
2022-10-23T02:29:41.323Z,11.77
2022-10-23T02:32:10.112Z,11.30
2022-10-23T02:34:37.368Z,13.38
2022-10-23T02:37:04.831Z,12.35
2022-10-23T02:39:31.920Z,15.07
2022-10-23T02:42:37.155Z,13.40
2022-10-23T02:45:10.051Z,18.40
2022-10-23T02:47:58.358Z,14.77
2022-10-23T02:50:32.421Z,13.00
2022-10-23T02:53:16.192Z,11.63
2022-10-23T02:56:00.769Z,13.40
2022-10-23T02:58:36.896Z,14.07
2022-10-23T03:01:12.022Z,11.35
2022-10-23T03:03:45.802Z,12.65
2022-10-23T03:06:13.783Z,11.25
2022-10-23T03:09:02.729Z,10.40
2022-10-23T03:11:30.182Z,10.63
2022-10-23T03:13:57.495Z,10.90
2022-10-23T03:16:24.858Z,11.55
2022-10-23T03:18:54.418Z,13.27
2022-10-23T03:21:21.898Z,12.73
2022-10-23T03:23:52.543Z,11.90
2022-10-23T03:26:26.783Z,14.57
2022-10-23T03:28:53.834Z,13.15
2022-10-23T03:31:22.042Z,13.15
2022-10-23T03:33:54.508Z,13.75
2022-10-23T03:36:22.196Z,12.98
2022-10-23T03:38:49.172Z,14.23
2022-10-23T03:41:16.224Z,14.45
2022-10-23T03:43:43.179Z,14.38
2022-10-23T03:46:13.016Z,14.07
2022-10-23T03:48:41.117Z,14.50
2022-10-23T03:51:08.606Z,20.38
2022-10-23T03:53:35.719Z,15.90
2022-10-23T03:56:04.860Z,16.48
2022-10-23T03:58:33.842Z,17.27
2022-10-23T04:01:00.897Z,16.52
2022-10-23T04:03:28.037Z,20.45
2022-10-23T04:05:54.949Z,16.67
2022-10-23T04:08:22.703Z,17.58
2022-10-23T04:10:54.604Z,16.27
2022-10-23T04:13:32.271Z,17.00
2022-10-23T04:15:59.370Z,15.02
2022-10-23T04:18:26.349Z,14.80
2022-10-23T04:20:53.430Z,13.57
2022-10-23T04:23:20.885Z,17.25
2022-10-23T04:28:35.246Z,15.00
2022-10-23T04:31:02.233Z,17.13
2022-10-23T04:33:29.256Z,15.98
2022-10-23T04:35:56.666Z,18.10
2022-10-23T04:38:23.857Z,15.63
2022-10-23T04:40:50.901Z,17.63
2022-10-23T04:43:21.578Z,17.65
2022-10-23T04:45:49.410Z,18.08
2022-10-23T04:48:16.554Z,17.35
2022-10-23T04:51:05.856Z,16.17
2022-10-23T04:54:09.634Z,17.38
2022-10-23T04:56:45.470Z,19.15
2022-10-23T04:59:16.345Z,18.70
2022-10-23T05:01:43.749Z,18.05
2022-10-23T05:04:10.749Z,18.92
2022-10-23T05:07:12.816Z,18.33
2022-10-23T05:09:53.519Z,15.82
2022-10-23T05:12:31.809Z,18.13
2022-10-23T05:14:59.001Z,14.95
2022-10-23T05:17:32.539Z,17.17
2022-10-23T05:20:02.947Z,15.52
2022-10-23T05:22:35.995Z,11.60
2022-10-23T05:25:06.113Z,15.25
2022-10-23T05:27:34.055Z,14.43
2022-10-23T05:30:02.710Z,14.57
2022-10-23T05:32:35.140Z,12.50
2022-10-23T05:35:08.229Z,15.77
2022-10-23T05:37:38.689Z,16.83
2022-10-23T05:40:13.573Z,15.32
2022-10-23T05:42:42.452Z,17.85
2022-10-23T05:45:12.187Z,14.63
2022-10-23T05:48:10.960Z,13.43
2022-10-23T05:51:11.054Z,13.82
2022-10-23T05:53:49.454Z,15.73
2022-10-23T05:56:43.396Z,14.02
2022-10-23T05:59:32.730Z,12.07
2022-10-23T06:02:11.464Z,14.98
2022-10-23T06:04:52.157Z,13.85
2022-10-23T06:07:37.921Z,15.55
2022-10-23T06:10:07.147Z,13.02
2022-10-23T06:12:39.085Z,12.70
2022-10-23T06:15:07.105Z,12.30
2022-10-23T06:18:01.199Z,11.68
2022-10-23T06:20:29.849Z,12.98
2022-10-23T06:23:07.523Z,11.98
2022-10-23T06:26:12.679Z,12.75
2022-10-23T06:29:03.025Z,11.68
2022-10-23T06:31:30.169Z,11.40
2022-10-23T06:33:59.769Z,11.48
2022-10-23T06:36:28.943Z,11.93
2022-10-23T06:39:05.539Z,12.50
2022-10-23T06:41:51.512Z,11.75
2022-10-23T06:44:38.481Z,11.20
2022-10-23T06:47:14.534Z,11.73
2022-10-23T06:50:11.712Z,10.90
2022-10-23T06:52:46.956Z,12.40
2022-10-23T06:55:17.192Z,12.45
2022-10-23T06:57:45.064Z,13.20
2022-10-23T07:00:13.121Z,13.10
2022-10-23T07:02:50.200Z,12.38
2022-10-23T07:05:18.384Z,13.13
2022-10-23T07:07:45.496Z,12.43
2022-10-23T07:10:17.083Z,12.73
2022-10-23T07:12:48.990Z,13.32
2022-10-23T07:15:32.966Z,12.30
2022-10-23T07:18:00.525Z,13.30
2022-10-23T07:20:39.306Z,13.02
2022-10-23T07:23:06.404Z,13.07
2022-10-23T07:25:38.085Z,14.85
2022-10-23T07:28:06.324Z,13.32
2022-10-23T07:30:33.882Z,12.95
2022-10-23T07:33:02.049Z,14.02
2022-10-23T07:35:50.198Z,13.25
2022-10-23T07:38:26.067Z,13.65
2022-10-23T07:40:57.917Z,14.07
2022-10-23T07:43:26.259Z,13.77
2022-10-23T07:45:54.272Z,13.05
2022-10-23T07:48:30.869Z,13.80
2022-10-23T07:51:01.617Z,12.75
2022-10-23T07:53:29.561Z,13.52
2022-10-23T07:56:12.479Z,13.40
2022-10-23T07:58:59.423Z,17.73
2022-10-23T08:01:33.683Z,15.60
2022-10-23T08:04:01.142Z,15.75
2022-10-23T08:06:29.263Z,16.58
2022-10-23T08:08:59.083Z,13.52
2022-10-23T08:11:31.114Z,13.90
2022-10-23T08:13:58.800Z,15.38
2022-10-23T08:16:28.456Z,14.77
2022-10-23T08:19:24.250Z,14.85
2022-10-23T08:21:55.370Z,13.20
2022-10-23T08:24:22.393Z,13.27
2022-10-23T08:26:50.509Z,9.05
2022-10-23T08:29:20.335Z,8.65
2022-10-23T08:31:48.689Z,9.48
2022-10-23T08:34:25.163Z,8.93
2022-10-23T08:36:54.470Z,8.50
2022-10-23T08:39:21.569Z,7.57
2022-10-23T08:44:58.766Z,6.93
2022-10-23T08:47:42.962Z,6.93
2022-10-23T08:50:40.464Z,6.15
2022-10-23T08:53:28.593Z,6.50
2022-10-23T08:56:12.335Z,7.47
2022-10-23T08:58:47.498Z,6.28
2022-10-23T09:01:48.047Z,5.93
2022-10-23T09:04:15.751Z,5.43
2022-10-23T09:10:31.363Z,6.35
2022-10-23T09:13:35.034Z,5.65
2022-10-23T09:16:01.988Z,4.45
2022-10-23T09:18:31.309Z,5.53
2022-10-23T09:20:58.767Z,5.53
2022-10-23T09:23:25.770Z,5.75
2022-10-23T09:25:57.178Z,4.93
2022-10-23T09:28:32.819Z,4.68
2022-10-23T09:31:12.110Z,4.78
2022-10-23T09:33:39.966Z,4.63
2022-10-23T09:36:07.276Z,4.78
2022-10-23T09:38:34.305Z,4.60
2022-10-23T09:41:17.542Z,5.35
2022-10-23T09:43:44.546Z,4.65
2022-10-23T09:46:12.392Z,5.32
2022-10-23T09:48:42.561Z,4.63
2022-10-23T09:51:21.686Z,4.63
2022-10-23T09:53:50.529Z,4.95
2022-10-23T09:56:24.701Z,5.10
2022-10-23T09:58:59.685Z,6.47
2022-10-23T10:01:38.641Z,6.43
2022-10-23T10:04:41.945Z,8.27
2022-10-23T10:07:21.771Z,7.60
2022-10-23T10:09:49.062Z,7.00
2022-10-23T10:12:37.822Z,10.90
2022-10-23T10:15:16.776Z,9.50
2022-10-23T10:17:57.335Z,9.17
2022-10-23T10:20:34.796Z,8.98
2022-10-23T10:23:17.558Z,9.65
2022-10-23T10:26:08.921Z,7.13
2022-10-23T10:29:01.628Z,6.57
2022-10-23T10:31:54.863Z,8.40
2022-10-23T10:34:56.803Z,7.68
2022-10-23T10:37:33.690Z,8.50
2022-10-23T10:40:15.915Z,8.02
2022-10-23T10:43:04.379Z,7.30
2022-10-23T10:45:39.470Z,7.07
2022-10-23T10:48:24.344Z,8.20
2022-10-23T10:51:33.391Z,9.00
2022-10-23T10:54:00.406Z,10.63
2022-10-23T10:56:31.812Z,11.85
2022-10-23T10:59:03.306Z,9.38
2022-10-23T11:02:06.360Z,8.38
2022-10-23T11:05:03.572Z,8.52
2022-10-23T11:07:41.843Z,8.68
2022-10-23T11:10:18.515Z,7.03
2022-10-23T11:12:48.170Z,7.70
2022-10-23T11:17:49.082Z,9.27
2022-10-23T11:20:26.236Z,7.93
2022-10-23T11:23:09.236Z,8.32
2022-10-23T11:25:53.889Z,7.97
2022-10-23T11:28:52.958Z,7.00
2022-10-23T11:31:36.387Z,8.23
2022-10-23T11:34:12.575Z,8.80
2022-10-23T11:36:56.495Z,7.57
2022-10-23T11:39:29.622Z,9.00
2022-10-23T11:42:07.563Z,9.15
2022-10-23T11:44:47.736Z,8.63
2022-10-23T11:47:40.667Z,10.13
2022-10-23T11:50:07.792Z,7.90
2022-10-23T11:53:19.891Z,7.68
2022-10-23T11:56:05.733Z,7.93
2022-10-23T11:58:48.914Z,7.40
2022-10-23T12:01:20.083Z,7.10
2022-10-23T12:03:55.861Z,7.50
2022-10-23T12:06:39.307Z,7.95
2022-10-23T12:09:22.560Z,8.32
2022-10-23T12:12:01.830Z,7.82
2022-10-23T12:14:34.872Z,7.63
2022-10-23T12:17:02.579Z,8.13
2022-10-23T12:19:41.225Z,7.65
2022-10-23T12:22:11.448Z,7.23
2022-10-23T12:24:52.180Z,8.10
2022-10-23T12:27:22.991Z,7.97
2022-10-23T12:30:09.876Z,8.98
2022-10-23T12:32:54.364Z,7.80
2022-10-23T12:35:25.808Z,7.95
2022-10-23T12:38:20.712Z,9.43
2022-10-23T12:41:15.127Z,8.55
2022-10-23T12:43:51.379Z,7.57
2022-10-23T12:46:31.149Z,7.53
2022-10-23T12:49:00.251Z,7.95
2022-10-23T12:51:30.130Z,7.78
2022-10-23T12:53:57.433Z,7.65
2022-10-23T12:56:30.580Z,7.35
2022-10-23T12:59:04.082Z,10.63
2022-10-23T13:01:34.028Z,7.90
2022-10-23T13:04:26.788Z,7.38
2022-10-23T13:06:56.265Z,7.32
2022-10-23T13:12:25.474Z,7.97
2022-10-23T13:15:00.070Z,10.48
2022-10-23T13:17:41.241Z,8.68
2022-10-23T13:20:18.344Z,7.97
2022-10-23T13:22:48.212Z,12.77
2022-10-23T13:25:21.373Z,8.57
2022-10-23T13:27:48.576Z,8.32
2022-10-23T13:30:40.295Z,12.30
2022-10-23T13:33:32.725Z,8.27
2022-10-23T13:36:02.939Z,11.10
2022-10-23T13:38:31.602Z,7.78
2022-10-23T13:41:00.638Z,10.70
2022-10-23T13:43:30.811Z,8.30
2022-10-23T13:46:02.098Z,9.05
2022-10-23T13:48:29.512Z,9.43
2022-10-23T13:51:11.995Z,12.50
2022-10-23T13:53:39.021Z,11.63
2022-10-23T13:56:06.571Z,9.68
2022-10-23T13:58:33.535Z,13.02
2022-10-23T14:01:00.683Z,12.43
2022-10-23T14:03:27.803Z,8.52
2022-10-23T14:05:54.827Z,8.77
2022-10-23T14:08:21.912Z,9.48
2022-10-23T14:10:48.903Z,9.73
2022-10-23T14:13:16.540Z,11.90
2022-10-23T14:15:43.424Z,11.95
2022-10-23T14:18:11.022Z,9.82
2022-10-23T14:20:39.174Z,12.23
2022-10-23T14:23:06.168Z,11.18
2022-10-23T14:25:33.193Z,11.52
2022-10-23T14:28:00.334Z,13.50
2022-10-23T14:30:27.327Z,9.18
2022-10-23T14:32:54.425Z,14.10
2022-10-23T14:35:21.351Z,9.35
2022-10-23T14:37:48.452Z,13.85
2022-10-23T14:40:15.435Z,13.45
2022-10-23T14:42:42.632Z,14.90
2022-10-23T14:45:10.246Z,12.10
2022-10-23T14:47:37.157Z,12.23
2022-10-23T14:50:04.502Z,14.32
2022-10-23T14:52:38.863Z,15.23
2022-10-23T14:55:19.838Z,13.30
2022-10-23T14:57:46.976Z,11.23
2022-10-23T15:00:15.570Z,12.43
2022-10-23T15:02:42.858Z,14.73
2022-10-23T15:05:10.185Z,12.98
2022-10-23T15:07:37.266Z,11.90
2022-10-23T15:10:05.289Z,14.43
2022-10-23T15:12:35.028Z,13.40
2022-10-23T15:15:02.981Z,20.90
2022-10-23T15:17:30.101Z,14.15
2022-10-23T15:19:57.099Z,17.00
2022-10-23T15:22:24.302Z,14.27
2022-10-23T15:24:52.259Z,12.68
2022-10-23T15:27:20.082Z,14.10
2022-10-23T15:29:47.157Z,12.43
2022-10-23T15:32:14.208Z,14.60
2022-10-23T15:34:42.953Z,14.25
2022-10-23T15:37:10.466Z,12.87
2022-10-23T15:39:37.897Z,13.48
2022-10-23T15:42:06.855Z,12.75
2022-10-23T15:44:34.289Z,15.00
2022-10-23T15:47:01.583Z,13.63
2022-10-23T15:49:32.768Z,13.68
2022-10-23T15:51:59.890Z,13.63
2022-10-23T15:54:30.465Z,12.52
2022-10-23T15:56:59.966Z,14.50
2022-10-23T15:59:27.512Z,13.50
2022-10-23T16:01:55.767Z,17.05
2022-10-23T16:04:23.462Z,17.10
2022-10-23T16:06:51.447Z,15.13
2022-10-23T16:09:21.713Z,15.30
2022-10-23T16:11:48.765Z,18.10
2022-10-23T16:14:17.696Z,13.18
2022-10-23T16:16:45.519Z,13.25
2022-10-23T16:19:13.144Z,15.00
2022-10-23T16:21:41.529Z,14.38
2022-10-23T16:24:09.913Z,15.93
2022-10-23T16:26:37.970Z,14.45
2022-10-23T16:29:07.407Z,14.10
2022-10-23T16:31:34.638Z,18.00
2022-10-23T16:34:02.892Z,15.07
2022-10-23T16:36:29.872Z,15.50
2022-10-23T16:39:18.992Z,16.67
2022-10-23T16:42:08.811Z,17.50
2022-10-23T16:44:56.841Z,13.98
2022-10-23T16:47:24.211Z,12.30
2022-10-23T16:49:51.149Z,13.25
2022-10-23T16:52:18.187Z,14.07
2022-10-23T16:54:45.197Z,18.40
2022-10-23T16:57:12.306Z,17.25
2022-10-23T16:59:39.310Z,18.92
2022-10-23T17:02:11.141Z,14.88
2022-10-23T17:04:41.010Z,12.27
2022-10-23T17:07:08.172Z,16.95
2022-10-23T17:09:35.898Z,18.05
2022-10-23T17:12:02.901Z,16.48
2022-10-23T17:14:30.111Z,16.63
2022-10-23T17:17:19.392Z,16.73
2022-10-23T17:19:46.859Z,16.55
2022-10-23T17:22:15.398Z,17.38
2022-10-23T17:24:45.337Z,16.20
2022-10-23T17:27:14.852Z,14.88
2022-10-23T17:29:41.762Z,14.43
2022-10-23T17:32:08.908Z,16.50
2022-10-23T17:34:35.933Z,18.45
2022-10-23T17:37:02.938Z,18.00
2022-10-23T17:39:30.596Z,15.68
2022-10-23T17:41:57.794Z,13.68
2022-10-23T17:44:25.053Z,20.15
2022-10-23T17:46:55.607Z,22.77
2022-10-23T17:49:24.423Z,18.40
2022-10-23T17:51:56.877Z,19.93
2022-10-23T17:54:26.127Z,15.65
2022-10-23T17:56:53.161Z,15.85
2022-10-23T17:59:20.423Z,14.20
2022-10-23T18:01:48.865Z,21.92
2022-10-23T18:04:17.901Z,12.93
2022-10-23T18:06:48.078Z,16.70
2022-10-23T18:09:15.604Z,14.10
2022-10-23T18:11:48.190Z,14.77
2022-10-23T18:14:17.859Z,16.23
2022-10-23T18:16:46.120Z,12.35
2022-10-23T18:19:15.356Z,12.10
2022-10-23T18:21:42.427Z,17.10
2022-10-23T18:24:10.087Z,14.40
2022-10-23T18:26:39.355Z,16.73
2022-10-23T18:29:10.300Z,20.08
2022-10-23T18:31:37.910Z,15.48
2022-10-23T18:34:08.324Z,14.15
2022-10-23T18:36:38.502Z,14.50
2022-10-23T18:39:12.133Z,14.48
2022-10-23T18:41:41.584Z,17.08
2022-10-23T18:44:09.058Z,16.73
2022-10-23T18:46:36.946Z,15.88
2022-10-23T18:49:04.470Z,13.82
2022-10-23T18:51:34.756Z,14.57
2022-10-23T18:54:11.506Z,15.60
2022-10-23T18:56:39.957Z,13.88
2022-10-23T18:59:10.437Z,20.02
2022-10-23T19:01:37.783Z,19.17
2022-10-23T19:04:05.227Z,15.18
2022-10-23T19:06:32.508Z,15.55
2022-10-23T19:08:59.696Z,18.52
2022-10-23T19:11:28.344Z,18.63
2022-10-23T19:13:55.938Z,17.58
2022-10-23T19:16:30.384Z,18.25
2022-10-23T19:19:01.168Z,14.52
2022-10-23T19:21:33.266Z,15.55
2022-10-23T19:24:07.284Z,17.92
2022-10-23T19:26:37.536Z,14.13
2022-10-23T19:29:08.238Z,11.73
2022-10-23T19:31:35.604Z,15.23
2022-10-23T19:34:02.703Z,11.50
2022-10-23T19:36:29.883Z,11.13
2022-10-23T19:38:56.975Z,14.95
2022-10-23T19:41:24.004Z,15.43
2022-10-23T19:43:50.905Z,19.33
2022-10-23T19:46:18.095Z,13.90
2022-10-23T19:48:47.437Z,12.80
2022-10-23T19:51:15.311Z,14.60
2022-10-23T19:53:42.893Z,15.25
2022-10-23T19:56:12.062Z,14.63
2022-10-23T19:58:40.604Z,14.02
2022-10-23T20:01:10.891Z,11.15
2022-10-23T20:03:39.176Z,13.55
2022-10-23T20:06:12.421Z,17.55
2022-10-23T20:08:40.573Z,15.35
2022-10-23T20:11:09.100Z,23.10
2022-10-23T20:13:36.571Z,12.60
2022-10-23T20:16:03.915Z,18.45
2022-10-23T20:18:30.940Z,15.68
2022-10-23T20:21:02.424Z,20.40
2022-10-23T20:23:29.456Z,15.45
2022-10-23T20:26:04.683Z,15.48
2022-10-23T20:28:31.819Z,15.95
2022-10-23T20:30:58.931Z,18.08
2022-10-23T20:33:26.137Z,15.25
2022-10-23T20:35:53.275Z,19.58
2022-10-23T20:38:20.362Z,15.52
2022-10-23T20:40:47.300Z,12.75
2022-10-23T20:43:14.336Z,13.18
2022-10-23T20:45:41.253Z,17.13
2022-10-23T20:48:08.246Z,16.73
2022-10-23T20:50:35.376Z,15.52
2022-10-23T20:53:02.513Z,15.23
2022-10-23T20:55:29.442Z,15.55
2022-10-23T20:57:56.969Z,14.48
2022-10-23T21:00:23.987Z,12.38
2022-10-23T21:02:52.686Z,15.30
2022-10-23T21:05:19.952Z,23.57
2022-10-23T21:07:46.926Z,14.30
2022-10-23T21:10:13.955Z,13.98
2022-10-23T21:12:41.102Z,15.13
2022-10-23T21:15:09.197Z,16.25
2022-10-23T21:17:40.198Z,15.30
2022-10-23T21:20:07.436Z,11.75
2022-10-23T21:22:34.396Z,12.75
2022-10-23T21:25:01.846Z,21.60
2022-10-23T21:27:28.834Z,14.77
2022-10-23T21:29:56.005Z,13.98
2022-10-23T21:32:22.957Z,18.20
2022-10-23T21:34:50.065Z,18.98
2022-10-23T21:37:17.021Z,17.63
2022-10-23T21:39:44.575Z,21.80
2022-10-23T21:42:13.415Z,22.13
2022-10-23T21:44:40.533Z,16.00
2022-10-23T21:47:07.463Z,15.38
2022-10-23T21:49:34.611Z,21.42
2022-10-23T21:52:01.626Z,21.80
2022-10-23T21:54:28.702Z,17.90
2022-10-23T21:56:55.790Z,17.65
2022-10-23T21:59:27.788Z,19.38
2022-10-23T22:01:57.517Z,25.05
2022-10-23T22:04:24.733Z,16.45
2022-10-23T22:06:53.449Z,13.40
2022-10-23T22:09:21.371Z,11.70
2022-10-23T22:11:50.291Z,21.67
2022-10-23T22:14:18.000Z,18.70
2022-10-23T22:16:45.371Z,16.02
2022-10-23T22:19:14.733Z,18.55
2022-10-23T22:21:41.795Z,18.70
2022-10-23T22:24:09.248Z,20.45
2022-10-23T22:26:45.468Z,19.38
2022-10-23T22:29:16.553Z,16.27
2022-10-23T22:31:47.277Z,18.52
2022-10-23T22:37:11.554Z,16.48
2022-10-23T22:39:39.065Z,22.25
2022-10-23T22:42:06.211Z,22.23
2022-10-23T22:44:33.224Z,19.05
2022-10-23T22:47:00.436Z,25.52
2022-10-23T22:49:27.389Z,20.63
2022-10-23T22:51:54.347Z,16.70
2022-10-23T22:54:21.343Z,18.23
2022-10-23T22:56:48.449Z,19.75
2022-10-23T22:59:15.371Z,23.17
2022-10-23T23:01:47.308Z,16.27
2022-10-23T23:07:07.089Z,18.45
2022-10-23T23:09:39.841Z,17.63
2022-10-23T23:12:08.169Z,19.27
2022-10-23T23:14:35.203Z,20.65
2022-10-23T23:17:02.675Z,19.70
2022-10-23T23:19:29.606Z,16.05
2022-10-23T23:21:58.904Z,20.55
2022-10-23T23:24:26.473Z,17.27
2022-10-23T23:26:53.522Z,23.73
2022-10-23T23:29:20.441Z,18.00
2022-10-23T23:31:47.478Z,20.63
2022-10-23T23:34:14.490Z,24.05
2022-10-23T23:36:41.629Z,14.52
2022-10-23T23:39:08.583Z,18.05
2022-10-23T23:41:35.525Z,19.27
2022-10-23T23:44:02.477Z,28.77
2022-10-23T23:46:29.452Z,21.23
2022-10-23T23:48:56.392Z,19.33
2022-10-23T23:51:25.156Z,19.58
2022-10-23T23:53:52.743Z,19.00
2022-10-23T23:56:20.168Z,17.27
2022-10-23T23:58:47.365Z,17.20
